Time;durP1;ratioP1;P1;durP2;ratioP2;P2;SDS_P1;SDS_P2;PMS_P1;PMS_P2;Temp;Humidity;BMP_temperature;BMP_pressure;BME280_temperature;BME280_humidity;BME280_pressure;Samples;Min_cycle;Max_cycle;Signal;HPM_P1;HPM_P2
2023/06/11 00:00:04;;;;;;;41.72;14.13;;;8.40;99.90;;;;;;5068083;28;20143;-80
2023/06/11 00:02:35;;;;;;;44.00;14.50;;;8.40;99.90;;;;;;5071487;28;20433;-80
2023/06/11 00:05:07;;;;;;;41.35;14.98;;;8.50;99.90;;;;;;5054487;28;20052;-80
2023/06/11 00:07:37;;;;;;;42.83;14.55;;;8.40;99.90;;;;;;5054376;28;20048;-80
2023/06/11 00:10:06;;;;;;;30.52;14.07;;;8.40;99.90;;;;;;5067504;28;20060;-80
2023/06/11 00:12:33;;;;;;;28.65;13.50;;;8.30;99.90;;;;;;5053669;28;20055;-79
2023/06/11 00:15:02;;;;;;;38.85;15.32;;;8.30;99.90;;;;;;5071078;28;20047;-79
2023/06/11 00:17:33;;;;;;;38.70;14.18;;;8.30;99.90;;;;;;5070737;28;20135;-80
2023/06/11 00:20:03;;;;;;;33.08;14.27;;;8.20;99.90;;;;;;5084094;28;20052;-79
2023/06/11 00:22:33;;;;;;;33.88;13.98;;;8.10;99.90;;;;;;5087695;28;20135;-80
2023/06/11 00:25:02;;;;;;;37.65;14.38;;;8.10;99.90;;;;;;5070927;28;20051;-80
2023/06/11 00:27:31;;;;;;;39.10;15.35;;;8.10;99.90;;;;;;5051862;28;20084;-80
2023/06/11 00:30:01;;;;;;;41.40;15.38;;;8.10;99.90;;;;;;5069576;28;20044;-80
2023/06/11 00:32:29;;;;;;;40.67;16.15;;;8.10;99.90;;;;;;5071997;28;20086;-80
2023/06/11 00:34:56;;;;;;;37.35;15.32;;;8.00;99.90;;;;;;5072105;28;20075;-80
2023/06/11 00:37:24;;;;;;;32.78;15.15;;;8.00;99.90;;;;;;5065353;28;20079;-80
2023/06/11 00:39:51;;;;;;;31.58;15.38;;;8.00;99.90;;;;;;5070425;28;20075;-80
2023/06/11 00:42:20;;;;;;;42.40;15.30;;;8.00;99.90;;;;;;5070508;28;20048;-81
2023/06/11 00:44:48;;;;;;;40.53;16.48;;;8.00;99.90;;;;;;5070631;28;20059;-81
2023/06/11 00:47:16;;;;;;;49.88;16.58;;;7.90;99.90;;;;;;5050314;28;20060;-80
2023/06/11 00:49:45;;;;;;;38.40;16.38;;;7.90;99.90;;;;;;5070454;28;20041;-80
2023/06/11 00:52:15;;;;;;;36.55;15.57;;;7.80;99.90;;;;;;5060706;28;20044;-79
2023/06/11 00:54:43;;;;;;;41.38;16.88;;;7.80;99.90;;;;;;5068087;28;20135;-80
2023/06/11 00:57:11;;;;;;;41.75;18.08;;;7.80;99.90;;;;;;5056600;28;20170;-79
2023/06/11 00:59:41;;;;;;;46.97;17.85;;;7.80;99.90;;;;;;5070784;28;20099;-78
2023/06/11 01:02:18;;;;;;;36.30;17.45;;;7.70;99.90;;;;;;5071982;28;20144;-78
2023/06/11 01:04:53;;;;;;;44.13;16.45;;;7.70;99.90;;;;;;5066246;28;20094;-79
2023/06/11 01:07:22;;;;;;;44.33;16.52;;;7.70;99.90;;;;;;5054308;28;20040;-80
2023/06/11 01:09:50;;;;;;;43.60;17.60;;;7.70;99.90;;;;;;5070863;28;20076;-79
2023/06/11 01:12:18;;;;;;;44.10;17.40;;;7.70;99.90;;;;;;5087545;28;20052;-79
2023/06/11 01:14:47;;;;;;;42.58;18.10;;;7.70;99.90;;;;;;5067082;28;20055;-79
2023/06/11 01:17:22;;;;;;;40.15;18.15;;;7.70;99.90;;;;;;5072171;28;20093;-79
2023/06/11 01:20:10;;;;;;;42.72;18.15;;;7.80;99.90;;;;;;5054466;28;20070;-78
2023/06/11 01:23:00;;;;;;;39.00;18.23;;;7.70;99.90;;;;;;5049389;28;20512;-79
2023/06/11 01:25:38;;;;;;;39.80;17.42;;;7.70;99.90;;;;;;5054189;28;20143;-79
2023/06/11 01:28:10;;;;;;;41.72;18.05;;;7.80;99.90;;;;;;5054775;28;20075;-79
2023/06/11 01:30:43;;;;;;;37.97;19.50;;;7.80;99.90;;;;;;5072429;28;20083;-79
2023/06/11 01:33:13;;;;;;;48.10;19.20;;;7.80;99.90;;;;;;5068505;28;20051;-78
2023/06/11 01:35:45;;;;;;;42.58;18.05;;;7.80;99.90;;;;;;5069670;28;20822;-78
2023/06/11 01:38:13;;;;;;;46.25;19.35;;;7.80;99.90;;;;;;5053246;28;20055;-78
2023/06/11 01:40:45;;;;;;;42.03;19.07;;;7.80;99.90;;;;;;5064403;28;20045;-79
2023/06/11 01:43:15;;;;;;;48.53;18.52;;;7.70;99.90;;;;;;5071234;28;20052;-79
2023/06/11 01:45:43;;;;;;;44.63;19.13;;;7.70;99.90;;;;;;5071545;28;20147;-79
2023/06/11 01:48:11;;;;;;;41.35;18.83;;;7.70;99.90;;;;;;5069969;28;20155;-79
2023/06/11 01:50:40;;;;;;;36.33;18.58;;;7.70;99.90;;;;;;5051548;28;20040;-79
2023/06/11 01:53:08;;;;;;;42.05;18.10;;;7.70;99.90;;;;;;5068946;28;20049;-79
2023/06/11 01:55:36;;;;;;;42.75;18.85;;;7.70;99.90;;;;;;5069360;28;20044;-79
2023/06/11 01:58:04;;;;;;;44.72;18.95;;;7.70;99.90;;;;;;5069986;28;20098;-78
2023/06/11 02:00:33;;;;;;;44.88;19.25;;;7.70;99.90;;;;;;5064718;28;20056;-79
2023/06/11 02:03:05;;;;;;;44.95;19.55;;;7.70;99.90;;;;;;5071456;28;20049;-79
2023/06/11 02:05:32;;;;;;;43.95;20.60;;;7.80;99.90;;;;;;5070089;28;20461;-79
2023/06/11 02:08:00;;;;;;;43.33;19.00;;;7.80;99.90;;;;;;5065118;28;20517;-79
2023/06/11 02:10:27;;;;;;;45.90;19.55;;;7.80;99.90;;;;;;5069818;28;20094;-79
2023/06/11 02:12:55;;;;;;;47.80;19.75;;;7.80;99.90;;;;;;5070907;28;20513;-79
2023/06/11 02:15:22;;;;;;;46.28;19.95;;;7.80;99.90;;;;;;5053056;28;20083;-79
2023/06/11 02:17:52;;;;;;;40.08;18.92;;;7.80;99.90;;;;;;5051763;28;20055;-79
2023/06/11 02:20:39;;;;;;;39.35;19.90;;;7.80;99.90;;;;;;5056467;28;20151;-79
2023/06/11 02:23:07;;;;;;;41.95;19.27;;;7.80;99.90;;;;;;5071043;28;20049;-79
2023/06/11 02:25:34;;;;;;;44.80;20.42;;;7.80;99.90;;;;;;5052526;28;20044;-79
2023/06/11 02:28:02;;;;;;;37.40;19.65;;;7.80;99.90;;;;;;5066353;28;20578;-79
2023/06/11 02:30:31;;;;;;;46.10;20.85;;;7.90;99.90;;;;;;5052428;28;20058;-79
2023/06/11 02:33:00;;;;;;;47.33;20.95;;;7.90;99.90;;;;;;5085685;28;20048;-79
2023/06/11 02:35:29;;;;;;;46.72;21.55;;;7.90;99.90;;;;;;5063985;28;20519;-79
2023/06/11 02:37:57;;;;;;;48.05;20.42;;;8.00;99.90;;;;;;5068740;28;20524;-79
2023/06/11 02:40:24;;;;;;;43.58;21.10;;;8.00;99.90;;;;;;5052193;28;20044;-79
2023/06/11 02:42:52;;;;;;;42.28;21.17;;;8.10;99.90;;;;;;5068760;28;20052;-80
2023/06/11 02:45:19;;;;;;;39.78;20.15;;;8.20;99.90;;;;;;5063439;28;20041;-80
2023/06/11 02:47:47;;;;;;;36.85;21.23;;;8.30;99.90;;;;;;5071303;28;20048;-80
2023/06/11 02:50:16;;;;;;;36.35;19.80;;;8.50;99.90;;;;;;5074097;28;20041;-79
2023/06/11 02:52:43;;;;;;;43.28;21.40;;;8.60;99.90;;;;;;5073542;28;20095;-79
2023/06/11 02:55:10;;;;;;;37.63;19.80;;;8.70;99.90;;;;;;5067213;28;20044;-79
2023/06/11 02:57:38;;;;;;;35.17;20.35;;;8.80;99.90;;;;;;5074216;28;20509;-78
2023/06/11 03:00:09;;;;;;;31.50;18.83;;;8.90;99.90;;;;;;5072841;28;20049;-79
2023/06/11 03:02:37;;;;;;;33.42;19.08;;;8.90;99.90;;;;;;5051585;28;20162;-78
2023/06/11 03:05:06;;;;;;;32.45;19.20;;;9.00;99.90;;;;;;5069122;28;20044;-79
2023/06/11 03:07:36;;;;;;;36.65;18.63;;;9.10;99.90;;;;;;5053042;28;20045;-79
2023/06/11 03:10:06;;;;;;;38.90;19.63;;;9.20;99.90;;;;;;5052875;28;20053;-79
2023/06/11 03:12:34;;;;;;;38.50;18.15;;;9.20;99.90;;;;;;5042946;28;20051;-79
2023/06/11 03:15:02;;;;;;;34.95;19.08;;;9.30;99.90;;;;;;5055910;28;20052;-79
2023/06/11 03:17:32;;;;;;;36.47;18.80;;;9.40;99.90;;;;;;5072634;28;20472;-78
2023/06/11 03:20:00;;;;;;;33.67;18.42;;;9.40;99.90;;;;;;5055968;28;20507;-78
2023/06/11 03:22:28;;;;;;;36.03;18.17;;;9.40;99.90;;;;;;5077579;28;20063;-78
2023/06/11 03:24:57;;;;;;;39.65;18.95;;;9.50;99.90;;;;;;5071877;28;20051;-78
2023/06/11 03:27:34;;;;;;;30.60;18.85;;;9.50;99.90;;;;;;5055692;28;20075;-79
2023/06/11 03:30:02;;;;;;;39.80;20.23;;;9.50;99.90;;;;;;5062217;28;20153;-79
2023/06/11 03:32:33;;;;;;;32.13;15.77;;;9.50;99.90;;;;;;5071984;28;20080;-79
2023/06/11 03:35:01;;;;;;;32.95;14.80;;;9.60;99.90;;;;;;5068474;28;20041;-79
2023/06/11 03:37:32;;;;;;;27.90;14.00;;;9.70;99.90;;;;;;5035366;28;20099;-79
2023/06/11 03:40:03;;;;;;;39.42;13.88;;;9.70;99.90;;;;;;5059454;28;20504;-80
2023/06/11 03:42:33;;;;;;;25.27;13.18;;;9.80;99.90;;;;;;5071697;28;20257;-80
2023/06/11 03:45:01;;;;;;;23.48;14.10;;;9.90;99.90;;;;;;5054857;28;20056;-79
2023/06/11 03:47:32;;;;;;;28.02;13.57;;;10.00;99.90;;;;;;5086784;28;20076;-80
2023/06/11 03:50:00;;;;;;;26.45;12.98;;;10.10;99.90;;;;;;5069580;28;20095;-78
2023/06/11 03:52:27;;;;;;;23.92;10.85;;;10.20;99.90;;;;;;5071410;28;20044;-79
2023/06/11 03:54:57;;;;;;;23.02;10.65;;;10.20;99.90;;;;;;5072185;28;20048;-79
2023/06/11 03:57:26;;;;;;;26.58;11.40;;;10.40;99.90;;;;;;5065882;28;20045;-79
2023/06/11 03:59:54;;;;;;;23.20;12.05;;;10.40;99.90;;;;;;5069532;28;20044;-78
2023/06/11 04:02:22;;;;;;;16.58;9.85;;;10.50;99.90;;;;;;5068031;28;20106;-78
2023/06/11 04:04:50;;;;;;;17.15;7.43;;;10.60;99.90;;;;;;5055609;28;20048;-80
2023/06/11 04:07:18;;;;;;;16.45;8.15;;;10.80;99.90;;;;;;5071166;28;20060;-80
2023/06/11 04:09:45;;;;;;;13.88;6.28;;;10.90;99.90;;;;;;5072695;28;20076;-80
2023/06/11 04:12:13;;;;;;;19.38;7.57;;;11.00;99.90;;;;;;5088960;28;20052;-79
2023/06/11 04:14:42;;;;;;;11.90;7.00;;;11.10;99.90;;;;;;5071946;28;20052;-78
2023/06/11 04:17:10;;;;;;;10.80;6.55;;;11.10;99.90;;;;;;5082712;28;20135;-80
2023/06/11 04:19:37;;;;;;;12.52;7.45;;;11.20;99.90;;;;;;5072890;28;20467;-81
2023/06/11 04:22:09;;;;;;;13.65;6.88;;;11.30;99.90;;;;;;5055320;28;20053;-80
2023/06/11 04:24:37;;;;;;;10.80;6.60;;;11.40;99.90;;;;;;5070775;28;20048;-80
2023/06/11 04:27:08;;;;;;;8.40;6.15;;;11.50;99.90;;;;;;5071906;28;20060;-79
2023/06/11 04:29:36;;;;;;;11.25;6.60;;;11.50;99.90;;;;;;5088446;28;20428;-80
2023/06/11 04:32:08;;;;;;;9.55;5.70;;;11.60;99.90;;;;;;5071535;28;20056;-79
2023/06/11 04:34:37;;;;;;;11.45;5.78;;;11.80;99.90;;;;;;5052934;28;20159;-80
2023/06/11 04:37:08;;;;;;;13.07;5.90;;;11.80;99.90;;;;;;5088172;28;20589;-80
2023/06/11 04:39:37;;;;;;;9.25;5.70;;;11.90;99.90;;;;;;5054678;28;20094;-80
2023/06/11 04:42:06;;;;;;;8.15;5.70;;;12.00;99.90;;;;;;5086621;28;20471;-81
2023/06/11 04:44:33;;;;;;;7.63;6.40;;;12.10;99.90;;;;;;5066739;28;20132;-80
2023/06/11 04:47:05;;;;;;;9.25;5.40;;;12.20;99.90;;;;;;5069808;28;20090;-80
2023/06/11 04:49:37;;;;;;;9.63;5.35;;;12.30;99.90;;;;;;5086707;28;20048;-80
2023/06/11 04:52:06;;;;;;;17.00;6.40;;;12.30;99.90;;;;;;5066815;28;20049;-79
2023/06/11 04:54:35;;;;;;;10.65;5.53;;;12.40;99.90;;;;;;5069671;28;20127;-79
2023/06/11 04:57:05;;;;;;;9.68;5.53;;;12.50;99.90;;;;;;5069666;28;20048;-80
2023/06/11 04:59:35;;;;;;;10.25;5.60;;;12.60;99.90;;;;;;5069438;28;20063;-80
2023/06/11 05:02:04;;;;;;;11.00;5.57;;;12.70;99.90;;;;;;5067059;28;20424;-80
2023/06/11 05:04:32;;;;;;;8.98;5.30;;;12.80;99.90;;;;;;5068774;28;20162;-80
2023/06/11 05:07:05;;;;;;;10.85;5.40;;;12.80;99.90;;;;;;5069515;28;20051;-79
2023/06/11 05:09:33;;;;;;;6.47;4.90;;;12.90;99.90;;;;;;5069176;28;20527;-79
2023/06/11 05:12:00;;;;;;;11.82;5.43;;;13.00;99.90;;;;;;5074494;28;20131;-80
2023/06/11 05:14:33;;;;;;;18.90;6.68;;;13.10;99.90;;;;;;5052386;28;20036;-79
2023/06/11 05:17:01;;;;;;;11.70;5.30;;;13.20;99.90;;;;;;5069211;28;20056;-79
2023/06/11 05:19:30;;;;;;;7.07;5.15;;;13.40;99.90;;;;;;5068256;28;20044;-78
2023/06/11 05:21:58;;;;;;;6.40;5.03;;;13.50;99.90;;;;;;5052528;28;20040;-81
2023/06/11 05:24:29;;;;;;;8.73;5.53;;;13.70;99.90;;;;;;5068882;28;20044;-79
2023/06/11 05:27:00;;;;;;;9.90;4.80;;;13.90;99.70;;;;;;5060353;28;20516;-79
2023/06/11 05:29:31;;;;;;;7.97;5.47;;;14.00;98.30;;;;;;5066611;28;20044;-78
2023/06/11 05:32:00;;;;;;;12.25;5.55;;;14.30;98.10;;;;;;5068534;28;20471;-78
2023/06/11 05:34:30;;;;;;;11.15;5.32;;;14.40;97.50;;;;;;5069022;28;20041;-79
2023/06/11 05:37:01;;;;;;;12.85;5.07;;;14.60;96.50;;;;;;5068377;28;20053;-79
2023/06/11 05:39:30;;;;;;;11.15;5.63;;;14.80;95.30;;;;;;5067931;28;20598;-80
2023/06/11 05:41:58;;;;;;;9.65;5.55;;;15.20;94.10;;;;;;5067792;28;20057;-82
2023/06/11 05:44:26;;;;;;;31.27;16.77;;;15.70;93.40;;;;;;5068973;28;20044;-80
2023/06/11 05:46:53;;;;;;;21.48;12.75;;;16.20;92.20;;;;;;5065169;28;20469;-80
2023/06/11 05:49:22;;;;;;;15.65;7.03;;;16.80;90.00;;;;;;5052372;28;20043;-80
2023/06/11 05:51:50;;;;;;;13.23;5.97;;;17.30;87.80;;;;;;5059839;28;20147;-81
2023/06/11 05:54:19;;;;;;;14.00;6.30;;;17.80;84.20;;;;;;5043803;28;20067;-80
2023/06/11 05:56:49;;;;;;;9.82;5.80;;;18.30;81.40;;;;;;5057657;28;20036;-80
2023/06/11 05:59:17;;;;;;;13.82;6.68;;;18.80;79.40;;;;;;5070363;28;20143;-79
2023/06/11 06:01:46;;;;;;;6.72;4.93;;;19.30;77.00;;;;;;5069815;28;20140;-80
2023/06/11 06:04:16;;;;;;;14.07;6.03;;;19.70;74.70;;;;;;5067950;28;20075;-79
2023/06/11 06:06:44;;;;;;;12.70;6.15;;;20.00;73.50;;;;;;5067804;28;20044;-79
2023/06/11 06:09:12;;;;;;;9.23;6.13;;;20.30;71.70;;;;;;5068686;28;20139;-81
2023/06/11 06:11:39;;;;;;;10.65;5.90;;;20.70;70.90;;;;;;5068681;28;20047;-79
2023/06/11 06:14:10;;;;;;;17.02;7.97;;;21.00;70.20;;;;;;5065521;28;20409;-78
2023/06/11 06:16:39;;;;;;;12.48;6.22;;;21.30;66.60;;;;;;5061122;28;20582;-79
2023/06/11 06:19:16;;;;;;;15.30;5.30;;;21.60;66.90;;;;;;5065392;28;20143;-79
2023/06/11 06:21:44;;;;;;;11.88;5.88;;;21.80;63.80;;;;;;5068573;28;20052;-79
2023/06/11 06:24:12;;;;;;;10.05;5.15;;;22.20;62.90;;;;;;5067317;28;20144;-76
2023/06/11 06:26:40;;;;;;;8.60;4.75;;;22.50;61.70;;;;;;5044966;28;20420;-77
2023/06/11 06:29:12;;;;;;;10.02;5.45;;;22.90;59.00;;;;;;5064620;28;20131;-77
2023/06/11 06:31:41;;;;;;;9.35;5.65;;;23.20;58.60;;;;;;5074176;28;20052;-77
2023/06/11 06:34:15;;;;;;;10.90;4.93;;;23.30;58.80;;;;;;5072445;28;20052;-77
2023/06/11 06:36:53;;;;;;;13.80;6.00;;;23.40;56.80;;;;;;5079891;28;20049;-78
2023/06/11 06:39:42;;;;;;;7.28;4.50;;;23.30;56.80;;;;;;5067387;28;20053;-77
2023/06/11 06:42:23;;;;;;;;;;;;;;;;;;;;;
2023/06/11 06:45:38;;;;;;;7.65;4.65;;;23.90;55.30;;;;;;5071680;28;20060;-79
2023/06/11 06:48:21;;;;;;;9.52;4.80;;;24.20;54.10;;;;;;5069953;28;20045;-82
2023/06/11 06:51:00;;;;;;;8.48;4.32;;;24.40;53.70;;;;;;5082527;28;20045;-82
2023/06/11 06:53:36;;;;;;;14.48;4.80;;;24.70;52.50;;;;;;5067899;28;20051;-81
2023/06/11 06:56:05;;;;;;;10.85;5.05;;;24.90;53.10;;;;;;5067650;28;20184;-80
2023/06/11 06:58:34;;;;;;;7.07;4.82;;;25.10;53.10;;;;;;5084883;28;20317;-78
2023/06/11 07:01:03;;;;;;;8.95;5.00;;;25.30;53.50;;;;;;5086437;28;20079;-82
2023/06/11 07:03:33;;;;;;;8.98;5.18;;;25.10;50.90;;;;;;5071781;28;20095;-79
2023/06/11 07:06:01;;;;;;;6.65;4.25;;;24.90;52.40;;;;;;5065629;28;20049;-80
2023/06/11 07:08:30;;;;;;;8.88;4.50;;;24.60;50.70;;;;;;5068826;28;20496;-81
2023/06/11 07:10:58;;;;;;;9.48;4.95;;;24.20;51.40;;;;;;5069634;28;20059;-78
2023/06/11 07:13:36;;;;;;;6.18;4.47;;;24.20;50.10;;;;;;5067951;28;20037;-78
2023/06/11 07:16:06;;;;;;;5.47;4.05;;;24.60;52.00;;;;;;5086363;28;20591;-76
2023/06/11 07:18:36;;;;;;;5.10;3.83;;;24.80;51.00;;;;;;5068208;28;20099;-82
2023/06/11 07:21:08;;;;;;;5.55;4.07;;;25.00;51.80;;;;;;5051229;28;20052;-83
2023/06/11 07:23:37;;;;;;;14.13;8.20;;;25.30;48.60;;;;;;5053229;28;20070;-82
2023/06/11 07:26:05;;;;;;;9.13;6.47;;;25.60;48.10;;;;;;5067059;28;20437;-77
2023/06/11 07:28:32;;;;;;;11.68;6.63;;;26.00;48.30;;;;;;5053786;28;20044;-76
2023/06/11 07:31:01;;;;;;;4.75;4.35;;;26.30;49.30;;;;;;5068070;28;20060;-76
2023/06/11 07:33:32;;;;;;;7.53;4.45;;;26.70;48.40;;;;;;5053130;28;20074;-77
2023/06/11 07:36:06;;;;;;;7.55;4.00;;;26.90;47.00;;;;;;5079801;28;20048;-77
2023/06/11 07:38:34;;;;;;;7.85;4.20;;;27.10;46.20;;;;;;5065870;28;20311;-77
2023/06/11 07:41:01;;;;;;;4.55;2.85;;;27.30;46.20;;;;;;5083883;28;20123;-77
2023/06/11 07:43:30;;;;;;;3.60;3.20;;;27.50;44.20;;;;;;5050833;28;20088;-78
2023/06/11 07:45:58;;;;;;;5.82;2.97;;;27.60;44.30;;;;;;5083772;28;20037;-77
2023/06/11 07:48:26;;;;;;;6.97;3.00;;;27.90;43.00;;;;;;5048078;28;20563;-77
2023/06/11 07:50:58;;;;;;;2.78;2.58;;;28.00;41.00;;;;;;5061929;28;20432;-77
2023/06/11 07:53:29;;;;;;;4.60;3.00;;;28.00;42.40;;;;;;5068701;28;20044;-77
2023/06/11 07:55:56;;;;;;;8.07;7.13;;;28.20;42.90;;;;;;5069063;28;20094;-77
2023/06/11 07:58:25;;;;;;;3.35;3.05;;;28.50;43.10;;;;;;5068671;28;20040;-76
2023/06/11 08:00:52;;;;;;;3.00;2.70;;;28.60;42.10;;;;;;5068720;28;20049;-76
2023/06/11 08:03:20;;;;;;;3.65;2.58;;;28.50;42.20;;;;;;5070893;28;20078;-77
2023/06/11 08:05:48;;;;;;;3.38;2.88;;;28.40;42.20;;;;;;5072933;28;20501;-76
2023/06/11 08:08:21;;;;;;;7.97;2.97;;;28.20;42.60;;;;;;5068283;28;20713;-77
2023/06/11 08:10:50;;;;;;;2.85;2.65;;;27.90;42.20;;;;;;5070234;28;20516;-76
2023/06/11 08:13:21;;;;;;;6.45;2.85;;;27.70;42.90;;;;;;5070636;28;20536;-78
2023/06/11 08:15:49;;;;;;;3.28;2.90;;;27.70;41.50;;;;;;5087449;28;20044;-77
2023/06/11 08:18:16;;;;;;;6.40;3.38;;;27.40;42.30;;;;;;5065793;28;20125;-77
2023/06/11 08:20:44;;;;;;;6.97;3.15;;;27.30;44.40;;;;;;5070985;28;20452;-78
2023/06/11 08:23:12;;;;;;;6.32;3.00;;;27.30;43.50;;;;;;5087640;28;20152;-77
2023/06/11 08:25:42;;;;;;;6.53;2.70;;;27.30;43.90;;;;;;5070726;28;20122;-76
2023/06/11 08:28:09;;;;;;;5.55;3.60;;;27.80;44.10;;;;;;5065310;28;20549;-76
2023/06/11 08:30:36;;;;;;;2.90;2.35;;;28.10;42.70;;;;;;5070352;28;20056;-76
2023/06/11 08:33:04;;;;;;;5.97;2.63;;;27.90;40.50;;;;;;5069822;28;20063;-77
2023/06/11 08:35:32;;;;;;;4.35;2.65;;;27.80;40.90;;;;;;5068433;28;20053;-77
2023/06/11 08:37:59;;;;;;;5.05;2.55;;;27.90;40.80;;;;;;5050940;28;20052;-77
2023/06/11 08:40:28;;;;;;;3.60;2.72;;;28.50;39.60;;;;;;5072006;28;20140;-76
2023/06/11 08:42:57;;;;;;;3.65;2.80;;;28.40;39.60;;;;;;5070131;28;20037;-76
2023/06/11 08:45:24;;;;;;;5.13;2.88;;;28.60;41.00;;;;;;5065855;28;20493;-75
2023/06/11 08:47:53;;;;;;;4.72;2.55;;;29.00;40.30;;;;;;5069799;28;20086;-76
2023/06/11 08:50:21;;;;;;;4.90;2.92;;;29.20;39.90;;;;;;5070080;28;20140;-75
2023/06/11 08:52:52;;;;;;;5.82;2.50;;;29.00;40.20;;;;;;5070260;28;20048;-76
2023/06/11 08:55:19;;;;;;;3.85;2.40;;;28.80;39.10;;;;;;5065877;28;20053;-76
2023/06/11 08:57:50;;;;;;;6.15;2.60;;;28.70;40.90;;;;;;5066868;28;20047;-77
2023/06/11 09:00:21;;;;;;;6.38;2.30;;;29.20;40.10;;;;;;5051866;28;20072;-78
2023/06/11 09:02:49;;;;;;;6.32;3.03;;;29.60;39.30;;;;;;5062453;28;20448;-77
2023/06/11 09:05:16;;;;;;;3.83;2.67;;;29.90;39.00;;;;;;5068408;28;20090;-77
2023/06/11 09:07:49;;;;;;;3.17;2.33;;;29.80;39.20;;;;;;5069479;28;20048;-77
2023/06/11 09:10:18;;;;;;;7.45;2.60;;;29.70;39.10;;;;;;5071635;28;20068;-77
2023/06/11 09:12:47;;;;;;;3.10;2.10;;;29.80;39.30;;;;;;5067476;28;20139;-77
2023/06/11 09:15:15;;;;;;;6.80;2.75;;;29.80;40.50;;;;;;5071634;28;20064;-77
2023/06/11 09:17:57;;;;;;;6.38;2.97;;;30.20;38.30;;;;;;5070589;28;20055;-77
2023/06/11 09:20:27;;;;;;;3.58;2.55;;;30.20;37.00;;;;;;5053206;28;20155;-77
2023/06/11 09:22:55;;;;;;;7.57;2.90;;;30.20;37.20;;;;;;5067543;28;20429;-77
2023/06/11 09:25:24;;;;;;;3.97;2.65;;;30.40;37.90;;;;;;5053053;28;20113;-78
2023/06/11 09:27:52;;;;;;;4.82;2.78;;;30.90;38.50;;;;;;5070800;28;20060;-77
2023/06/11 09:30:20;;;;;;;7.63;2.80;;;31.30;37.90;;;;;;5066164;28;20535;-77
2023/06/11 09:32:50;;;;;;;3.17;2.85;;;31.60;37.60;;;;;;5067678;28;20130;-76
2023/06/11 09:35:17;;;;;;;7.80;3.55;;;32.00;37.50;;;;;;5070735;28;20046;-77
2023/06/11 09:37:49;;;;;;;3.30;2.47;;;32.30;37.80;;;;;;5070283;28;20048;-77
2023/06/11 09:40:19;;;;;;;5.30;2.67;;;32.70;38.00;;;;;;5065530;28;20067;-77
2023/06/11 09:42:49;;;;;;;6.78;2.78;;;32.80;38.40;;;;;;5068846;28;20521;-77
2023/06/11 09:45:20;;;;;;;6.63;3.05;;;32.60;35.30;;;;;;5071086;28;20143;-77
2023/06/11 09:47:51;;;;;;;4.57;2.95;;;32.50;36.90;;;;;;5069817;28;20059;-77
2023/06/11 09:50:20;;;;;;;4.10;2.67;;;32.50;35.80;;;;;;5063835;28;20059;-76
2023/06/11 09:52:47;;;;;;;5.03;3.40;;;32.80;35.40;;;;;;5069262;28;20040;-75
2023/06/11 09:55:15;;;;;;;5.03;3.20;;;32.70;33.80;;;;;;5068966;28;20071;-76
2023/06/11 09:57:44;;;;;;;6.50;3.13;;;32.60;33.90;;;;;;5063570;28;20055;-77
2023/06/11 10:00:13;;;;;;;8.00;3.58;;;32.70;33.50;;;;;;5069597;28;20647;-76
2023/06/11 10:02:42;;;;;;;6.15;2.40;;;33.10;33.00;;;;;;5070305;28;20060;-76
2023/06/11 10:05:12;;;;;;;4.80;2.67;;;33.00;34.10;;;;;;5071170;28;20059;-76
2023/06/11 10:07:46;;;;;;;3.70;2.58;;;32.80;35.60;;;;;;5063765;28;20075;-76
2023/06/11 10:10:17;;;;;;;4.93;2.22;;;32.70;35.10;;;;;;5070435;28;20048;-76
2023/06/11 10:12:50;;;;;;;3.08;2.42;;;32.90;34.80;;;;;;5070647;28;20163;-78
2023/06/11 10:15:18;;;;;;;8.07;3.13;;;33.20;34.50;;;;;;5062940;28;20064;-78
2023/06/11 10:17:49;;;;;;;3.13;2.67;;;33.40;33.70;;;;;;5065031;28;20051;-79
2023/06/11 10:20:28;;;;;;;4.10;2.77;;;33.40;34.20;;;;;;5064207;28;20057;-80
2023/06/11 10:23:07;;;;;;;2.58;2.38;;;33.40;33.10;;;;;;5069652;28;20048;-80
2023/06/11 10:25:35;;;;;;;3.30;2.88;;;33.40;32.80;;;;;;5066034;28;20055;-79
2023/06/11 10:28:04;;;;;;;3.55;2.75;;;33.40;31.70;;;;;;5070368;28;20448;-79
2023/06/11 10:30:34;;;;;;;8.13;3.20;;;33.70;31.30;;;;;;5085731;28;20052;-80
2023/06/11 10:33:02;;;;;;;7.80;2.90;;;33.90;32.50;;;;;;5066637;28;20052;-79
2023/06/11 10:35:33;;;;;;;5.25;2.75;;;33.90;32.00;;;;;;5063102;28;20060;-78
2023/06/11 10:38:10;;;;;;;4.10;2.50;;;33.70;33.10;;;;;;5059631;28;20527;-78
2023/06/11 10:40:45;;;;;;;6.25;2.85;;;33.60;31.20;;;;;;5063529;28;20102;-79
2023/06/11 10:43:18;;;;;;;2.70;2.50;;;33.80;32.40;;;;;;5063457;28;20159;-79
2023/06/11 10:45:46;;;;;;;2.60;2.20;;;33.80;30.60;;;;;;5069015;28;20048;-78
2023/06/11 10:48:14;;;;;;;4.57;2.72;;;33.20;31.20;;;;;;5069191;28;20059;-78
2023/06/11 10:50:43;;;;;;;3.25;2.40;;;32.80;31.50;;;;;;5069084;28;20048;-78
2023/06/11 10:53:13;;;;;;;2.58;2.30;;;33.10;31.70;;;;;;5065178;28;20482;-78
2023/06/11 10:55:47;;;;;;;8.88;3.28;;;33.40;31.90;;;;;;5078609;28;20041;-76
2023/06/11 10:58:23;;;;;;;3.17;2.78;;;33.50;31.70;;;;;;5066561;28;20093;-79
2023/06/11 11:00:53;;;;;;;6.70;2.85;;;34.00;32.00;;;;;;5068329;28;20123;-79
2023/06/11 11:03:32;;;;;;;6.65;2.80;;;34.00;31.30;;;;;;5066616;28;20045;-78
2023/06/11 11:06:04;;;;;;;5.25;3.70;;;33.90;32.00;;;;;;5065213;28;20411;-80
2023/06/11 11:08:32;;;;;;;5.55;2.65;;;34.00;32.60;;;;;;5066464;28;20055;-78
2023/06/11 11:11:00;;;;;;;4.32;2.58;;;34.20;32.10;;;;;;5070374;28;20143;-78
2023/06/11 11:13:29;;;;;;;4.68;3.10;;;34.40;31.20;;;;;;5072394;28;20577;-80
2023/06/11 11:15:58;;;;;;;7.18;2.70;;;34.70;31.20;;;;;;5073590;28;20052;-77
2023/06/11 11:18:25;;;;;;;4.97;2.65;;;35.00;31.30;;;;;;5068347;28;20040;-77
2023/06/11 11:20:55;;;;;;;4.50;2.60;;;35.10;31.10;;;;;;5070844;28;20146;-78
2023/06/11 11:23:25;;;;;;;3.25;2.83;;;35.40;32.20;;;;;;5070832;28;20052;-76
2023/06/11 11:25:53;;;;;;;5.15;2.63;;;35.80;30.90;;;;;;5071031;28;20110;-77
2023/06/11 11:28:20;;;;;;;5.05;2.65;;;36.00;31.00;;;;;;5068573;28;20040;-76
2023/06/11 11:30:49;;;;;;;2.53;2.25;;;36.20;31.10;;;;;;5069730;28;20055;-76
2023/06/11 11:33:20;;;;;;;5.30;2.30;;;36.40;29.70;;;;;;5070745;28;20412;-76
2023/06/11 11:35:53;;;;;;;3.03;2.20;;;36.20;29.40;;;;;;5069359;28;20322;-75
2023/06/11 11:38:21;;;;;;;2.83;2.35;;;36.10;31.10;;;;;;5067039;28;20459;-76
2023/06/11 11:40:56;;;;;;;6.82;5.25;;;36.00;29.40;;;;;;5067716;28;20044;-76
2023/06/11 11:43:24;;;;;;;4.57;2.72;;;35.90;29.80;;;;;;5059372;28;20098;-78
2023/06/11 11:45:54;;;;;;;3.63;3.17;;;35.90;29.50;;;;;;5062046;28;20071;-76
2023/06/11 11:48:22;;;;;;;6.00;3.00;;;36.00;30.10;;;;;;5064548;28;20052;-76
2023/06/11 11:51:06;;;;;;;6.97;3.70;;;36.20;30.90;;;;;;5089116;28;20040;-76
2023/06/11 11:53:34;;;;;;;5.22;4.10;;;36.50;30.50;;;;;;5084914;28;20051;-76
2023/06/11 11:56:05;;;;;;;5.47;4.63;;;36.40;31.00;;;;;;5069343;28;20044;-75
2023/06/11 11:58:37;;;;;;;5.97;3.87;;;36.00;31.00;;;;;;5062144;28;20539;-76
2023/06/11 12:01:08;;;;;;;5.22;4.35;;;35.70;30.70;;;;;;5070847;28;20125;-77
2023/06/11 12:03:37;;;;;;;5.70;4.10;;;35.60;31.60;;;;;;5082917;28;20056;-78
2023/06/11 12:06:09;;;;;;;8.73;4.07;;;35.60;31.90;;;;;;5059345;28;20099;-77
2023/06/11 12:08:38;;;;;;;4.78;4.28;;;35.50;32.30;;;;;;5081701;28;20512;-76
2023/06/11 12:11:07;;;;;;;6.63;3.88;;;35.10;33.20;;;;;;5069081;28;20052;-76
2023/06/11 12:13:34;;;;;;;8.82;4.30;;;35.10;33.20;;;;;;5052400;28;20058;-77
2023/06/11 12:16:02;;;;;;;7.18;3.90;;;35.30;32.90;;;;;;5063733;28;20048;-76
2023/06/11 12:18:30;;;;;;;6.43;4.10;;;35.50;33.20;;;;;;5068015;28;20048;-77
2023/06/11 12:20:57;;;;;;;8.02;4.60;;;35.50;32.80;;;;;;5062804;28;20060;-76
2023/06/11 12:23:28;;;;;;;8.52;4.43;;;35.60;32.40;;;;;;5063168;28;20048;-77
2023/06/11 12:25:55;;;;;;;7.70;4.47;;;36.00;32.20;;;;;;5070060;28;20282;-77
2023/06/11 12:28:24;;;;;;;7.53;4.90;;;36.30;32.50;;;;;;5066861;28;20052;-75
2023/06/11 12:30:52;;;;;;;4.93;3.63;;;36.50;32.40;;;;;;5069000;28;20076;-77
2023/06/11 12:33:20;;;;;;;4.63;3.63;;;36.40;32.80;;;;;;5062637;28;20055;-75
2023/06/11 12:35:49;;;;;;;5.75;4.30;;;36.40;32.80;;;;;;5065172;28;20044;-77
2023/06/11 12:38:18;;;;;;;7.97;3.67;;;36.40;31.90;;;;;;5064825;28;20491;-76
2023/06/11 12:40:46;;;;;;;3.92;3.55;;;36.40;32.50;;;;;;5068839;28;20131;-76
2023/06/11 12:43:13;;;;;;;3.88;3.53;;;36.40;31.50;;;;;;5069276;28;20063;-77
2023/06/11 12:45:45;;;;;;;4.20;3.85;;;36.30;31.70;;;;;;5068707;28;20050;-76
2023/06/11 12:48:13;;;;;;;8.68;4.18;;;36.20;31.50;;;;;;5063121;28;20063;-77
2023/06/11 12:50:40;;;;;;;9.73;4.28;;;35.90;31.00;;;;;;5081922;28;20501;-76
2023/06/11 12:53:08;;;;;;;5.35;3.55;;;35.60;30.40;;;;;;5065091;28;20044;-75
2023/06/11 12:55:35;;;;;;;4.60;4.18;;;35.50;30.90;;;;;;5066487;28;20052;-76